Time;durP1;ratioP1;P1;durP2;ratioP2;P2;SDS_P1;SDS_P2;PMS_P1;PMS_P2;Temp;Humidity;BMP_temperature;BMP_pressure;BME280_temperature;BME280_humidity;BME280_pressure;Samples;Min_cycle;Max_cycle;Signal;HPM_P1;HPM_P2
2021/08/12 00:00:11;;;;;;;20.80;16.17;;;;;;;18.57;86.76;99462.91;5014499;28;20042;-80
2021/08/12 00:02:36;;;;;;;22.65;16.20;;;;;;;18.69;86.67;99497.47;5015283;28;20042;-80
2021/08/12 00:05:05;;;;;;;26.58;18.05;;;;;;;18.62;86.61;99487.25;5013159;28;20052;-81
2021/08/12 00:07:31;;;;;;;22.88;16.27;;;;;;;18.71;86.83;99485.09;5013694;28;20074;-79
2021/08/12 00:09:59;;;;;;;22.33;16.88;;;;;;;18.67;86.79;99472.06;5014457;28;20049;-79
2021/08/12 00:12:26;;;;;;;19.70;14.98;;;;;;;18.70;86.86;99478.13;5014487;28;20054;-79
2021/08/12 00:14:51;;;;;;;20.60;15.90;;;;;;;18.71;86.76;99464.00;5012943;28;20058;-79
2021/08/12 00:17:17;;;;;;;21.10;15.57;;;;;;;18.73;86.89;99451.63;5029091;28;20095;-79
2021/08/12 00:19:43;;;;;;;25.85;18.73;;;;;;;18.71;86.76;99450.84;5014596;28;20041;-78
2021/08/12 00:22:10;;;;;;;22.77;16.83;;;;;;;18.60;86.73;99427.63;5012349;28;20426;-78
2021/08/12 00:24:35;;;;;;;24.98;16.35;;;;;;;18.71;86.83;99435.91;5012435;28;20073;-79
2021/08/12 00:27:02;;;;;;;24.70;16.92;;;;;;;18.76;86.78;99433.88;5011874;28;20042;-79
2021/08/12 00:29:32;;;;;;;24.85;17.38;;;;;;;18.76;86.80;99425.13;5028006;28;20069;-78
2021/08/12 00:32:02;;;;;;;23.33;16.83;;;;;;;18.71;86.77;99435.03;5012666;28;20080;-76
2021/08/12 00:34:31;;;;;;;23.58;16.88;;;;;;;18.65;86.93;99417.75;4995912;28;20497;-79
2021/08/12 00:36:57;;;;;;;23.80;17.17;;;;;;;18.73;86.82;99433.19;5027862;28;20064;-78
2021/08/12 00:39:26;;;;;;;22.08;16.08;;;;;;;18.61;86.92;99413.53;5014096;28;20086;-78
2021/08/12 00:41:53;;;;;;;23.52;16.85;;;;;;;18.79;86.73;99443.44;5012946;28;20041;-80
2021/08/12 00:44:20;;;;;;;22.98;16.75;;;;;;;18.62;86.83;99394.16;5014711;28;20080;-80
2021/08/12 00:46:46;;;;;;;27.10;18.63;;;;;;;18.76;86.71;99411.94;5014001;28;20101;-79
2021/08/12 00:49:15;;;;;;;26.58;18.73;;;;;;;18.79;86.83;99409.16;5001832;28;20509;-82
2021/08/12 00:51:47;;;;;;;22.95;15.75;;;;;;;18.78;86.84;99383.75;5014490;28;20476;-81
2021/08/12 00:54:14;;;;;;;25.58;17.65;;;;;;;18.72;86.71;99395.44;4983310;28;20065;-80
2021/08/12 00:56:41;;;;;;;25.13;18.38;;;;;;;18.75;86.76;99397.94;4986369;28;20037;-80
2021/08/12 00:59:07;;;;;;;27.90;19.05;;;;;;;18.71;86.88;99422.72;5016135;28;20048;-78
2021/08/12 01:01:41;;;;;;;23.60;16.90;;;;;;;18.72;86.95;99415.66;4981118;28;20087;-82
2021/08/12 01:04:10;;;;;;;25.83;17.02;;;;;;;18.75;86.92;99415.50;4985822;28;20042;-79
2021/08/12 01:07:07;;;;;;;21.45;15.98;;;;;;;18.77;86.95;99419.75;5020566;28;20045;-78
2021/08/12 01:09:42;;;;;;;20.55;16.38;;;;;;;18.65;86.98;99397.50;5033083;28;20042;-79
2021/08/12 01:12:20;;;;;;;21.27;16.27;;;;;;;18.79;86.96;99425.81;5013537;28;20052;-79
2021/08/12 01:15:04;;;;;;;21.60;15.55;;;;;;;18.82;86.98;99435.38;5011752;28;20137;-82
2021/08/12 01:17:41;;;;;;;23.27;15.13;;;;;;;18.66;86.87;99403.63;4996219;28;20038;-83
2021/08/12 01:20:28;;;;;;;22.10;16.08;;;;;;;18.81;86.95;99434.50;4997903;28;20046;-77
2021/08/12 01:22:59;;;;;;;21.58;16.13;;;;;;;18.75;87.00;99412.88;5005338;28;20030;-81
2021/08/12 01:25:32;;;;;;;21.37;16.30;;;;;;;18.74;87.00;99392.72;5036717;28;20034;-78
2021/08/12 01:28:12;;;;;;;20.67;15.35;;;;;;;18.78;87.15;99389.84;5019498;28;20032;-79
2021/08/12 01:30:56;;;;;;;23.52;16.92;;;;;;;18.83;87.13;99397.53;5021887;28;20061;-80
2021/08/12 01:33:33;;;;;;;24.35;17.00;;;;;;;18.87;86.98;99396.44;5010799;28;20065;-79
2021/08/12 01:36:02;;;;;;;26.75;18.40;;;;;;;18.84;87.00;99390.47;5012480;28;20042;-79
2021/08/12 01:38:30;;;;;;;28.23;18.77;;;;;;;18.78;86.87;99368.75;5013635;28;20041;-78
2021/08/12 01:40:58;;;;;;;27.85;18.35;;;;;;;18.76;86.97;99380.31;4996136;28;20099;-78
2021/08/12 01:43:25;;;;;;;22.63;17.15;;;;;;;18.78;87.09;99375.84;5015430;28;20049;-77
2021/08/12 01:45:59;;;;;;;26.02;16.73;;;;;;;18.83;87.07;99373.81;5031100;28;20042;-82
2021/08/12 01:48:30;;;;;;;29.40;19.23;;;;;;;18.76;87.15;99364.50;5016540;28;20045;-81
2021/08/12 01:50:57;;;;;;;30.55;20.13;;;;;;;18.85;87.01;99363.19;5014578;28;20038;-79
2021/08/12 01:53:25;;;;;;;27.85;18.27;;;;;;;18.77;87.00;99355.69;5030936;28;20069;-80
2021/08/12 01:55:52;;;;;;;36.10;21.88;;;;;;;18.71;86.76;99354.22;4998022;28;20111;-79
2021/08/12 01:58:22;;;;;;;26.35;18.45;;;;;;;18.69;87.21;99344.66;5015056;28;20049;-80
2021/08/12 02:00:49;;;;;;;24.98;17.42;;;;;;;18.60;87.16;99332.78;5014385;28;20045;-78
2021/08/12 02:03:16;;;;;;;26.90;18.58;;;;;;;18.75;87.22;99361.03;5014917;28;20129;-79
2021/08/12 02:05:45;;;;;;;26.38;18.85;;;;;;;18.80;87.20;99364.28;4997892;28;20053;-78
2021/08/12 02:08:12;;;;;;;28.73;19.80;;;;;;;18.80;87.03;99343.19;5016349;28;20129;-77
2021/08/12 02:10:41;;;;;;;31.42;20.58;;;;;;;18.62;87.22;99323.91;5032056;28;20081;-77
2021/08/12 02:13:08;;;;;;;28.27;20.23;;;;;;;18.82;87.20;99358.94;5015398;28;20046;-79
2021/08/12 02:15:34;;;;;;;29.27;20.05;;;;;;;18.88;87.35;99373.59;5014394;28;20048;-79
2021/08/12 02:17:59;;;;;;;29.15;20.77;;;;;;;18.85;87.28;99355.28;5017303;28;20129;-79
2021/08/12 02:20:26;;;;;;;27.90;19.67;;;;;;;18.87;87.24;99366.59;5023393;28;20101;-79
2021/08/12 02:23:08;;;;;;;33.17;22.13;;;;;;;18.91;87.09;99376.91;5024418;28;20390;-79
2021/08/12 02:25:38;;;;;;;35.05;22.23;;;;;;;18.81;87.27;99355.44;5038837;28;20056;-77
2021/08/12 02:28:08;;;;;;;37.17;22.27;;;;;;;18.78;87.46;99354.75;4974922;28;20080;-81
2021/08/12 02:30:39;;;;;;;28.20;19.13;;;;;;;18.88;87.31;99366.53;5005749;28;20034;-77
2021/08/12 02:33:08;;;;;;;34.60;22.50;;;;;;;18.76;87.27;99349.53;5039446;28;20033;-80
2021/08/12 02:35:37;;;;;;;30.90;20.65;;;;;;;18.76;87.19;99346.06;5021665;28;20052;-78
2021/08/12 02:38:07;;;;;;;43.50;23.67;;;;;;;18.85;87.36;99358.78;5034779;28;20049;-78
2021/08/12 02:40:35;;;;;;;32.97;21.65;;;;;;;18.78;87.26;99344.22;5017277;28;20068;-78
2021/08/12 02:43:02;;;;;;;33.78;21.02;;;;;;;18.87;87.39;99351.63;5024171;28;20451;-77
2021/08/12 02:45:29;;;;;;;36.85;23.30;;;;;;;18.74;87.20;99340.88;5039368;28;20041;-78
2021/08/12 02:47:56;;;;;;;40.95;23.23;;;;;;;18.78;87.37;99341.56;5025174;28;20127;-79
2021/08/12 02:50:23;;;;;;;33.95;21.40;;;;;;;18.80;87.43;99348.47;5043039;28;20049;-78
2021/08/12 02:52:50;;;;;;;31.77;20.35;;;;;;;18.90;87.46;99353.28;5029610;28;20049;-77
2021/08/12 02:55:18;;;;;;;42.35;23.40;;;;;;;18.73;87.38;99309.31;5045826;28;20065;-78
2021/08/12 02:57:45;;;;;;;41.75;22.42;;;;;;;18.79;87.52;99320.41;5030683;28;20056;-77
2021/08/12 03:00:12;;;;;;;37.35;22.55;;;;;;;18.90;87.30;99340.94;5031519;28;20052;-80
2021/08/12 03:02:46;;;;;;;50.42;24.40;;;;;;;18.92;87.18;99340.88;5027209;28;20046;-77
2021/08/12 03:05:14;;;;;;;40.95;23.45;;;;;;;18.91;87.44;99339.16;5045696;28;20103;-78
2021/08/12 03:07:51;;;;;;;34.92;21.33;;;;;;;18.95;87.65;99336.31;5006279;28;20034;-78
2021/08/12 03:10:19;;;;;;;35.13;21.90;;;;;;;18.93;87.50;99324.97;5025392;28;20067;-82
2021/08/12 03:12:47;;;;;;;36.65;22.55;;;;;;;18.85;87.59;99314.00;5029586;28;20050;-81
2021/08/12 03:15:14;;;;;;;48.08;24.75;;;;;;;18.98;87.56;99334.47;5028555;28;20040;-79
2021/08/12 03:17:42;;;;;;;47.45;25.25;;;;;;;18.77;87.48;99306.44;5047464;28;20022;-80
2021/08/12 03:20:09;;;;;;;44.42;24.15;;;;;;;19.02;87.42;99350.03;5032215;28;20042;-79
2021/08/12 03:22:35;;;;;;;31.67;20.58;;;;;;;19.00;87.70;99343.16;5045322;28;20076;-79
2021/08/12 03:25:01;;;;;;;39.58;22.63;;;;;;;18.94;87.40;99342.50;5024087;28;20124;-80
2021/08/12 03:27:27;;;;;;;44.30;23.33;;;;;;;18.86;87.19;99331.50;5002555;28;20060;-79
2021/08/12 03:29:53;;;;;;;35.05;20.90;;;;;;;18.95;87.75;99346.88;5041546;28;20042;-82
2021/08/12 03:32:20;;;;;;;38.15;22.83;;;;;;;19.06;87.72;99353.41;5013804;28;20109;-81
2021/08/12 03:34:47;;;;;;;25.77;17.90;;;;;;;19.14;87.61;99360.91;5000909;28;20038;-79
2021/08/12 03:37:16;;;;;;;23.85;18.02;;;;;;;19.04;87.73;99329.72;5014874;28;20125;-81
2021/08/12 03:39:42;;;;;;;29.40;18.77;;;;;;;19.26;87.59;99365.53;5012847;28;20048;-80
2021/08/12 03:42:10;;;;;;;27.20;19.48;;;;;;;19.24;87.82;99352.44;4980737;28;20450;-80
2021/08/12 03:44:35;;;;;;;31.15;20.08;;;;;;;19.26;87.52;99344.44;5012736;28;20049;-78
2021/08/12 03:47:01;;;;;;;24.42;17.40;;;;;;;19.32;87.33;99345.88;5014208;28;20053;-82
2021/08/12 03:49:27;;;;;;;25.85;18.25;;;;;;;19.30;87.72;99324.03;5013901;28;20041;-81
2021/08/12 03:51:54;;;;;;;27.58;18.92;;;;;;;19.40;87.22;99343.72;5015288;28;20025;-80
2021/08/12 03:54:20;;;;;;;28.00;18.50;;;;;;;19.59;87.64;99361.19;4999527;28;20058;-81
2021/08/12 03:56:46;;;;;;;21.52;16.63;;;;;;;19.57;87.56;99351.56;5030175;28;20056;-80
2021/08/12 03:59:11;;;;;;;23.95;17.05;;;;;;;19.69;87.58;99367.72;5012908;28;20044;-79
2021/08/12 04:01:37;;;;;;;24.55;17.58;;;;;;;19.66;87.06;99362.59;5012841;28;20482;-79
2021/08/12 04:04:05;;;;;;;22.83;16.83;;;;;;;19.65;87.44;99352.97;5011736;28;20053;-79
2021/08/12 04:06:31;;;;;;;23.85;17.42;;;;;;;19.75;87.26;99367.34;5013724;28;20509;-83
2021/08/12 04:08:57;;;;;;;22.38;16.83;;;;;;;19.79;87.29;99376.81;4996228;28;20069;-79
2021/08/12 04:11:23;;;;;;;22.42;16.63;;;;;;;19.69;87.46;99351.88;4997329;28;20034;-80
2021/08/12 04:13:49;;;;;;;25.55;17.58;;;;;;;19.88;87.06;99377.28;5013126;28;20545;-79
2021/08/12 04:16:15;;;;;;;25.77;18.10;;;;;;;19.82;87.15;99373.19;5015217;28;20147;-77
2021/08/12 04:18:41;;;;;;;20.75;16.17;;;;;;;19.85;86.96;99367.75;5012962;28;20038;-79
2021/08/12 04:21:07;;;;;;;24.25;17.88;;;;;;;19.83;86.93;99364.31;5030247;28;20100;-79
2021/08/12 04:23:33;;;;;;;23.48;16.73;;;;;;;19.90;86.99;99372.78;5016506;28;20072;-80
2021/08/12 04:25:59;;;;;;;24.25;17.55;;;;;;;19.89;87.10;99373.72;5028186;28;20050;-78
2021/08/12 04:28:25;;;;;;;23.60;17.45;;;;;;;19.89;86.67;99381.63;5012070;28;20038;-81
2021/08/12 04:30:51;;;;;;;36.17;20.25;;;;;;;19.84;86.31;99374.78;5027956;28;20054;-80
2021/08/12 04:33:18;;;;;;;27.98;19.63;;;;;;;19.83;86.31;99359.88;5012104;28;20100;-80
2021/08/12 04:35:45;;;;;;;25.35;19.10;;;;;;;19.80;86.50;99353.94;4997491;28;20044;-79
2021/08/12 04:38:15;;;;;;;25.58;17.23;;;;;;;19.84;86.98;99327.28;5030300;28;20095;-79
2021/08/12 04:40:41;;;;;;;27.48;20.60;;;;;;;19.96;86.91;99320.50;5015761;28;20072;-82
2021/08/12 04:43:07;;;;;;;23.00;17.48;;;;;;;19.97;86.46;99305.53;5013743;28;20045;-79
2021/08/12 04:45:34;;;;;;;24.73;18.95;;;;;;;20.11;86.49;99310.88;5013459;28;20041;-79
2021/08/12 04:48:02;;;;;;;24.08;19.42;;;;;;;20.15;86.57;99295.69;5029493;28;20485;-78
2021/08/12 04:50:29;;;;;;;24.13;19.00;;;;;;;20.19;86.60;99291.09;5011997;28;20038;-77
2021/08/12 04:52:56;;;;;;;22.40;16.90;;;;;;;20.33;86.73;99291.16;5011067;28;20061;-78
2021/08/12 04:55:23;;;;;;;20.45;16.38;;;;;;;20.40;86.57;99278.44;5011088;28;20095;-78
2021/08/12 04:57:51;;;;;;;22.75;17.77;;;;;;;20.43;86.63;99265.06;4979360;28;20045;-79
2021/08/12 05:00:18;;;;;;;22.67;18.20;;;;;;;20.46;86.34;99243.75;4997639;28;20527;-78
2021/08/12 05:02:45;;;;;;;21.73;17.15;;;;;;;20.66;86.44;99262.84;5012411;28;20048;-79
2021/08/12 05:05:11;;;;;;;22.67;18.15;;;;;;;20.73;86.21;99270.31;4967157;28;20050;-80
2021/08/12 05:07:39;;;;;;;21.73;17.77;;;;;;;20.70;86.23;99238.78;5013700;28;20042;-78
2021/08/12 05:10:06;;;;;;;21.63;16.80;;;;;;;20.86;85.98;99244.03;4996962;28;20041;-78
2021/08/12 05:12:32;;;;;;;20.17;16.02;;;;;;;20.92;86.06;99227.81;5014236;28;20049;-80
2021/08/12 05:15:07;;;;;;;21.60;17.10;;;;;;;21.02;85.85;99233.38;5019153;28;20045;-78
2021/08/12 05:17:45;;;;;;;17.65;15.75;;;;;;;21.02;85.86;99219.28;5024743;28;20137;-80
2021/08/12 05:20:19;;;;;;;20.30;16.92;;;;;;;20.97;85.34;99203.72;5023495;28;20041;-80
2021/08/12 05:22:45;;;;;;;17.85;15.68;;;;;;;21.06;85.45;99216.38;5017606;28;20112;-79
2021/08/12 05:25:15;;;;;;;17.48;15.52;;;;;;;21.12;84.96;99232.78;5016385;28;20041;-81
2021/08/12 05:27:44;;;;;;;18.20;14.73;;;;;;;21.19;85.17;99234.13;5015294;28;20573;-78
2021/08/12 05:30:10;;;;;;;17.45;14.55;;;;;;;21.30;85.08;99226.34;5034313;28;20113;-77
2021/08/12 05:32:36;;;;;;;19.55;16.90;;;;;;;21.34;85.07;99217.28;5018576;28;20048;-79
2021/08/12 05:35:05;;;;;;;25.05;20.70;;;;;;;21.45;84.83;99202.53;5009669;28;20033;-78
2021/08/12 05:38:09;;;;;;;26.65;19.70;;;;;;;21.71;84.70;99219.41;5032659;28;20045;-81
2021/08/12 05:40:57;;;;;;;;;;;;;;;21.83;84.25;99212.47;5013160;28;20121;-78
2021/08/12 05:43:27;;;;;;;21.50;14.45;;;;;;;21.94;84.15;99206.47;5018235;28;19971;-80
2021/08/12 05:46:24;;;;;;;15.30;12.82;;;;;;;21.77;84.30;99144.03;5017228;28;20117;-78
2021/08/12 05:48:49;;;;;;;16.20;13.02;;;;;;;22.22;83.79;99180.81;5017558;28;20046;-81
2021/08/12 05:51:15;;;;;;;14.85;12.93;;;;;;;22.76;83.98;99209.00;5017582;28;20098;-78
2021/08/12 05:53:41;;;;;;;17.58;12.82;;;;;;;23.38;84.00;99199.38;5018833;28;20135;-77
2021/08/12 05:56:18;;;;;;;14.20;12.13;;;;;;;23.89;82.98;99205.47;5031271;28;20049;-78
2021/08/12 05:58:51;;;;;;;14.25;12.85;;;;;;;23.84;81.58;99173.09;5036781;28;20046;-76
2021/08/12 06:01:20;;;;;;;15.10;12.30;;;;;;;24.12;80.75;99181.69;5033095;28;20045;-78
2021/08/12 06:03:50;;;;;;;15.45;11.95;;;;;;;24.40;79.78;99220.31;5032121;28;20034;-77
2021/08/12 06:06:50;;;;;;;15.63;12.73;;;;;;;24.50;79.07;99205.34;5019926;28;20057;-78
2021/08/12 06:10:43;;;;;;;16.90;13.40;;;;;;;24.15;77.61;99194.75;4976962;29;20023;-77
2021/08/12 06:13:33;;;;;;;15.10;11.80;;;;;;;24.13;77.56;99221.41;4938755;28;20107;-79
2021/08/12 06:16:26;;;;;;;14.95;12.30;;;;;;;24.31;77.14;99227.19;5003903;28;20042;-77
2021/08/12 06:18:57;;;;;;;13.95;12.45;;;;;;;24.26;77.09;99201.91;5006134;28;20117;-76
2021/08/12 06:21:46;;;;;;;15.30;12.93;;;;;;;24.30;75.59;99198.91;5019310;28;20034;-78
2021/08/12 06:24:31;;;;;;;17.52;14.05;;;;;;;24.65;75.19;99280.44;5036223;28;20026;-75
2021/08/12 06:27:02;;;;;;;16.90;13.60;;;;;;;24.09;75.10;99232.41;5019119;28;20038;-79
2021/08/12 06:29:29;;;;;;;17.45;13.43;;;;;;;23.79;74.36;99218.59;5016772;28;20046;-78
2021/08/12 06:32:37;;;;;;;;;;;;;;;;;;;;;
2021/08/12 06:35:31;;;;;;;15.55;13.85;;;;;;;23.19;72.99;99220.22;5034644;28;20049;-80
2021/08/12 06:38:27;;;;;;;16.10;13.93;;;;;;;23.32;73.93;99292.72;5019520;28;20046;-80
2021/08/12 06:41:35;;;;;;;17.08;14.55;;;;;;;23.06;74.35;99276.75;5012342;28;20052;-81
2021/08/12 06:44:59;;;;;;;;;;;;;;;;;;;;;
2021/08/12 06:48:12;;;;;;;18.02;14.93;;;;;;;22.53;75.86;99222.03;5035429;28;20046;-79
2021/08/12 06:50:48;;;;;;;20.98;14.50;;;;;;;22.67;75.69;99223.75;5006515;28;20034;-78
2021/08/12 06:53:39;;;;;;;17.45;14.77;;;;;;;22.75;75.77;99212.59;5019004;28;20069;-77
2021/08/12 06:56:08;;;;;;;18.15;15.48;;;;;;;23.33;75.72;99286.44;5004877;28;20046;-78
2021/08/12 06:58:39;;;;;;;16.70;14.25;;;;;;;23.51;75.67;99288.75;5037650;28;20033;-80
2021/08/12 07:01:10;;;;;;;18.67;14.48;;;;;;;23.74;75.34;99287.13;5037587;28;20046;-81
2021/08/12 07:03:36;;;;;;;20.17;15.90;;;;;;;23.49;75.08;99224.31;5018857;28;20042;-80
2021/08/12 07:06:02;;;;;;;18.10;15.50;;;;;;;23.31;74.70;99169.78;5032131;28;20210;-82
2021/08/12 07:08:31;;;;;;;18.48;15.75;;;;;;;24.20;74.16;99273.16;5033445;28;20046;-82
2021/08/12 07:10:57;;;;;;;16.95;15.20;;;;;;;24.40;74.03;99267.31;5019403;28;20262;-83
2021/08/12 07:13:23;;;;;;;17.08;15.10;;;;;;;24.55;72.86;99281.25;5033419;28;20101;-78
2021/08/12 07:15:49;;;;;;;16.92;15.13;;;;;;;24.68;72.93;99279.38;4992857;28;20053;-79
2021/08/12 07:18:18;;;;;;;15.93;14.00;;;;;;;24.79;72.88;99262.63;5016404;28;20067;-79
2021/08/12 07:20:48;;;;;;;19.58;16.45;;;;;;;24.76;72.13;99249.56;4998181;28;20124;-79
2021/08/12 07:23:17;;;;;;;17.00;15.27;;;;;;;24.49;71.22;99218.75;5016717;28;20042;-80
2021/08/12 07:25:52;;;;;;;17.95;16.02;;;;;;;24.39;71.48;99217.75;5000069;28;20038;-80
2021/08/12 07:28:19;;;;;;;19.50;16.80;;;;;;;24.39;71.62;99233.69;5016337;28;20092;-79
2021/08/12 07:30:55;;;;;;;22.15;17.02;;;;;;;24.35;71.55;99244.59;5015172;28;20053;-81
2021/08/12 07:33:30;;;;;;;21.80;18.00;;;;;;;24.21;71.68;99232.34;4999222;28;20493;-79
2021/08/12 07:35:55;;;;;;;17.73;15.93;;;;;;;24.24;71.84;99257.00;5015664;28;20045;-82
2021/08/12 07:38:21;;;;;;;18.77;16.80;;;;;;;24.15;71.44;99224.00;5014508;28;20045;-80
2021/08/12 07:40:52;;;;;;;19.92;17.83;;;;;;;24.16;71.82;99223.03;5027400;28;20117;-82
2021/08/12 07:43:17;;;;;;;20.55;16.05;;;;;;;24.39;71.79;99261.16;5030863;28;20038;-78
2021/08/12 07:45:43;;;;;;;19.42;17.30;;;;;;;24.36;71.65;99227.69;5040048;28;20057;-78
2021/08/12 07:48:09;;;;;;;20.05;17.95;;;;;;;24.43;71.91;99224.53;5011982;28;20575;-79
2021/08/12 07:50:35;;;;;;;21.17;18.85;;;;;;;24.57;71.65;99242.97;5034282;28;20092;-77
2021/08/12 07:53:17;;;;;;;19.73;17.65;;;;;;;24.50;71.53;99228.44;5014372;28;20041;-78
2021/08/12 07:55:44;;;;;;;23.02;18.38;;;;;;;24.36;70.92;99217.06;5012574;28;20140;-78
2021/08/12 07:58:14;;;;;;;20.75;18.17;;;;;;;24.38;71.43;99226.72;5011758;28;20041;-77
2021/08/12 08:00:40;;;;;;;22.05;19.73;;;;;;;24.43;71.25;99251.13;5011845;28;20045;-77
2021/08/12 08:03:06;;;;;;;21.02;18.23;;;;;;;24.46;71.66;99261.53;5012328;28;20045;-77
2021/08/12 08:05:34;;;;;;;20.45;18.15;;;;;;;24.45;71.57;99249.19;5010908;28;20558;-78
2021/08/12 08:07:59;;;;;;;19.90;17.77;;;;;;;24.67;71.59;99267.03;5012603;28;20033;-77
2021/08/12 08:10:26;;;;;;;21.77;17.65;;;;;;;24.81;70.88;99282.81;5011383;28;20506;-77
2021/08/12 08:12:55;;;;;;;20.38;18.10;;;;;;;24.98;71.32;99287.81;5011144;28;20046;-77
2021/08/12 08:15:21;;;;;;;21.83;18.50;;;;;;;25.04;70.78;99266.06;5014166;28;20046;-77
2021/08/12 08:17:47;;;;;;;20.00;17.90;;;;;;;25.05;70.12;99252.63;5011080;28;20056;-77
2021/08/12 08:20:15;;;;;;;21.02;18.83;;;;;;;24.99;70.22;99261.06;5028027;28;20129;-78
2021/08/12 08:22:42;;;;;;;20.13;18.10;;;;;;;24.89;69.79;99263.59;5012478;28;20042;-78
2021/08/12 08:25:09;;;;;;;20.48;18.20;;;;;;;24.94;70.11;99261.44;5011282;28;20128;-78
2021/08/12 08:27:35;;;;;;;19.88;17.63;;;;;;;24.87;70.14;99248.72;4993726;28;20034;-78
2021/08/12 08:30:09;;;;;;;21.40;17.63;;;;;;;24.99;70.23;99269.06;4995895;28;20042;-78
2021/08/12 08:32:35;;;;;;;20.65;18.13;;;;;;;24.95;69.92;99289.75;5010371;28;20129;-78
2021/08/12 08:35:01;;;;;;;19.73;17.70;;;;;;;24.73;69.77;99285.19;5012456;28;20046;-78
2021/08/12 08:37:27;;;;;;;27.02;23.48;;;;;;;24.62;69.99;99287.81;5009999;28;20604;-77
2021/08/12 08:39:54;;;;;;;24.98;18.58;;;;;;;24.55;69.90;99297.22;5025987;28;20041;-78
2021/08/12 08:42:20;;;;;;;20.58;18.25;;;;;;;24.48;69.90;99307.47;5010051;28;20514;-76
2021/08/12 08:44:49;;;;;;;18.80;16.02;;;;;;;24.40;70.00;99284.13;5010452;28;20054;-77
2021/08/12 08:47:17;;;;;;;22.38;19.60;;;;;;;24.45;69.90;99294.41;5012162;28;20038;-77
2021/08/12 08:49:46;;;;;;;18.92;16.92;;;;;;;24.46;69.87;99293.44;5011480;28;20099;-77
2021/08/12 08:52:13;;;;;;;18.80;15.73;;;;;;;24.29;70.14;99258.34;5012350;28;20034;-76
2021/08/12 08:54:42;;;;;;;21.50;17.45;;;;;;;24.48;69.52;99292.38;5013697;28;20092;-77
2021/08/12 08:57:08;;;;;;;18.02;16.27;;;;;;;24.44;69.91;99290.03;5015598;28;20116;-77
2021/08/12 08:59:35;;;;;;;17.70;15.85;;;;;;;24.41;69.78;99290.25;5029785;28;20108;-77
2021/08/12 09:02:06;;;;;;;19.63;17.00;;;;;;;24.29;69.84;99287.56;4981682;28;20038;-76
2021/08/12 09:04:52;;;;;;;19.55;16.40;;;;;;;24.21;70.13;99284.63;5012896;28;20044;-77
2021/08/12 09:07:18;;;;;;;20.95;18.75;;;;;;;23.99;70.26;99286.22;5022120;28;20118;-77
2021/08/12 09:09:49;;;;;;;22.42;19.02;;;;;;;23.77;70.34;99270.97;5025143;28;20041;-77
2021/08/12 09:12:16;;;;;;;20.70;17.67;;;;;;;23.67;71.27;99283.19;5019099;28;20030;-76
2021/08/12 09:14:43;;;;;;;22.23;19.80;;;;;;;23.53;72.06;99277.09;5014743;28;20038;-77
2021/08/12 09:17:37;;;;;;;23.30;20.05;;;;;;;23.37;73.09;99264.03;5015067;28;20053;-77
2021/08/12 09:20:14;;;;;;;23.42;20.85;;;;;;;23.54;73.72;99302.69;5011910;28;20054;-77
2021/08/12 09:22:50;;;;;;;24.50;20.98;;;;;;;23.53;74.46;99314.25;5014672;28;20038;-77
2021/08/12 09:25:26;;;;;;;22.38;18.83;;;;;;;23.50;74.64;99310.97;5012303;28;20081;-77
2021/08/12 09:28:10;;;;;;;21.25;18.95;;;;;;;23.38;74.04;99310.88;4995613;28;20443;-77
2021/08/12 09:30:36;;;;;;;24.23;20.95;;;;;;;23.08;74.28;99289.94;4993936;28;20044;-77
2021/08/12 09:33:05;;;;;;;28.00;22.25;;;;;;;22.89;74.80;99274.44;5011987;28;20037;-78
2021/08/12 09:35:31;;;;;;;23.25;20.30;;;;;;;23.02;74.99;99296.53;5011287;28;20052;-77
2021/08/12 09:38:11;;;;;;;23.60;20.83;;;;;;;23.11;75.68;99284.44;5011683;28;20577;-78
2021/08/12 09:40:39;;;;;;;25.93;23.23;;;;;;;23.35;75.77;99296.97;4994723;28;20037;-77
2021/08/12 09:43:07;;;;;;;26.85;23.23;;;;;;;23.27;76.06;99255.88;5013374;28;20379;-78
2021/08/12 09:45:34;;;;;;;30.73;26.35;;;;;;;23.60;75.01;99301.38;5012262;28;20102;-77
2021/08/12 09:48:16;;;;;;;28.23;25.08;;;;;;;23.54;75.84;99304.47;5028895;28;20044;-78
2021/08/12 09:50:57;;;;;;;28.88;24.45;;;;;;;23.63;76.02;99306.47;5033076;28;20080;-78
2021/08/12 09:53:23;;;;;;;;;;;;;;;23.78;75.35;99309.84;4996674;28;20037;-77
2021/08/12 09:55:52;;;;;;;22.08;19.70;;;;;;;23.69;75.74;99290.13;4980596;28;19925;-78
2021/08/12 09:58:18;;;;;;;21.38;18.55;;;;;;;23.81;75.57;99287.53;4998436;28;20046;-78
2021/08/12 10:00:47;;;;;;;21.38;18.13;;;;;;;23.78;75.35;99285.94;5000236;28;20038;-78
2021/08/12 10:03:32;;;;;;;19.75;17.75;;;;;;;23.87;75.02;99301.19;5013167;28;20052;-78
2021/08/12 10:06:04;;;;;;;24.13;18.63;;;;;;;23.87;74.49;99300.38;4995539;28;20188;-78
2021/08/12 10:08:33;;;;;;;24.33;20.00;;;;;;;23.65;73.74;99274.50;5015639;28;20068;-78
2021/08/12 10:11:32;;;;;;;24.13;20.63;;;;;;;23.73;73.95;99304.00;4998965;28;20489;-78
2021/08/12 10:14:31;;;;;;;28.23;22.25;;;;;;;23.61;73.52;99305.75;5014614;28;20049;-77
2021/08/12 10:17:12;;;;;;;26.58;22.70;;;;;;;23.46;73.92;99295.25;4996933;28;20510;-79
2021/08/12 10:19:47;;;;;;;25.83;23.02;;;;;;;23.41;73.83;99294.72;5012235;28;20136;-79
2021/08/12 10:22:19;;;;;;;29.45;26.15;;;;;;;23.51;74.09;99334.75;4996718;28;20076;-80
2021/08/12 10:24:59;;;;;;;26.02;21.55;;;;;;;23.57;74.26;99314.88;5012354;28;20048;-78
2021/08/12 10:27:50;;;;;;;26.20;21.65;;;;;;;23.01;73.78;99186.91;5014226;28;20261;-78
2021/08/12 10:33:53;;;;;;;21.65;19.20;;;;;;;23.87;72.99;99218.03;5012174;28;20489;-76
2021/08/12 10:36:21;;;;;;;25.45;22.75;;;;;;;24.26;72.30;99253.25;5013897;28;20048;-79
2021/08/12 10:39:22;;;;;;;22.33;19.92;;;;;;;24.52;71.12;99308.94;5013056;28;20056;-77
2021/08/12 10:41:51;;;;;;;;;;;;;;;24.49;71.28;99311.81;5013322;28;20050;-76
2021/08/12 10:44:21;;;;;;;25.30;21.50;;;;;;;23.89;71.42;99221.41;5014074;28;19967;-78
2021/08/12 10:46:49;;;;;;;21.92;19.63;;;;;;;24.31;71.03;99288.31;5012209;28;20053;-77
2021/08/12 10:49:34;;;;;;;21.98;19.15;;;;;;;24.51;71.08;99312.56;5012315;28;20095;-78
2021/08/12 10:52:04;;;;;;;23.70;20.25;;;;;;;24.51;70.75;99310.72;5011711;28;20034;-78
2021/08/12 10:54:35;;;;;;;21.73;18.55;;;;;;;24.53;70.88;99307.97;4995615;28;20057;-76
2021/08/12 10:57:14;;;;;;;21.42;19.23;;;;;;;24.66;70.70;99322.03;5012128;28;20052;-77
2021/08/12 10:59:41;;;;;;;23.52;19.80;;;;;;;24.81;70.10;99322.72;5012407;28;20133;-77
2021/08/12 11:02:28;;;;;;;22.65;19.80;;;;;;;24.94;69.84;99338.59;5019116;28;20531;-77
2021/08/12 11:04:59;;;;;;;22.48;20.08;;;;;;;24.86;69.41;99345.47;5047688;28;20176;-78
2021/08/12 11:07:51;;;;;;;21.83;19.63;;;;;;;24.78;69.48;99322.94;5020823;28;20049;-77
2021/08/12 11:10:17;;;;;;;23.45;19.15;;;;;;;25.03;70.10;99325.56;5012499;28;20072;-78
2021/08/12 11:12:53;;;;;;;24.83;19.10;;;;;;;25.26;69.67;99329.97;5028561;28;20077;-77
2021/08/12 11:15:46;;;;;;;22.63;18.58;;;;;;;25.62;69.25;99327.19;5013645;28;20040;-77
2021/08/12 11:18:44;;;;;;;20.38;18.27;;;;;;;25.86;68.65;99335.06;4983912;28;20042;-77
2021/08/12 11:21:29;;;;;;;19.58;17.50;;;;;;;26.07;68.01;99330.75;5011339;28;20045;-77
2021/08/12 11:24:05;;;;;;;21.98;17.80;;;;;;;25.97;66.80;99330.66;5014071;28;20498;-78
2021/08/12 11:26:46;;;;;;;19.85;17.65;;;;;;;25.99;67.79;99336.72;5017136;28;20133;-78
2021/08/12 11:29:30;;;;;;;22.13;17.40;;;;;;;26.22;66.78;99334.88;5013240;28;20525;-78
2021/08/12 11:32:14;;;;;;;19.73;17.63;;;;;;;26.31;65.74;99335.94;5013388;28;20133;-77
2021/08/12 11:34:51;;;;;;;19.75;17.70;;;;;;;26.40;66.63;99329.84;4995802;28;20038;-77
2021/08/12 11:37:28;;;;;;;18.67;16.63;;;;;;;26.48;65.92;99321.22;4995562;28;20045;-77
2021/08/12 11:40:00;;;;;;;18.48;16.58;;;;;;;26.55;66.04;99325.06;5014767;28;20081;-79
2021/08/12 11:42:41;;;;;;;20.35;18.15;;;;;;;26.74;65.63;99327.03;5012963;28;20478;-78
2021/08/12 11:45:12;;;;;;;20.85;18.05;;;;;;;26.83;64.76;99308.56;5014975;28;20536;-77
2021/08/12 11:47:39;;;;;;;21.92;18.98;;;;;;;26.92;63.88;99319.31;5014394;28;20051;-77